createdAt,value
2022-10-15T00:01:17.403Z,1.60
2022-10-15T00:03:45.114Z,2.50
2022-10-15T00:06:15.861Z,8.20
2022-10-15T00:08:43.117Z,4.70
2022-10-15T00:11:16.177Z,1.63
2022-10-15T00:13:43.967Z,1.10
2022-10-15T00:16:14.469Z,1.20
2022-10-15T00:18:42.356Z,1.50
2022-10-15T00:21:11.069Z,2.30
2022-10-15T00:23:38.085Z,6.20
2022-10-15T00:26:10.881Z,2.70
2022-10-15T00:28:38.165Z,1.83
2022-10-15T00:31:08.630Z,3.73
2022-10-15T00:33:35.840Z,1.10
2022-10-15T00:36:04.290Z,3.03
2022-10-15T00:38:31.533Z,2.97
2022-10-15T00:40:58.430Z,1.63
2022-10-15T00:43:39.781Z,1.93
2022-10-15T00:46:17.524Z,2.80
2022-10-15T00:48:46.732Z,4.20
2022-10-15T00:51:14.377Z,1.03
2022-10-15T00:53:41.243Z,1.20
2022-10-15T00:56:08.130Z,2.03
2022-10-15T00:58:35.808Z,2.23
2022-10-15T01:01:02.959Z,1.83
2022-10-15T01:03:29.898Z,1.30
2022-10-15T01:05:56.887Z,1.63
2022-10-15T01:08:23.755Z,1.40
2022-10-15T01:11:05.329Z,3.07
2022-10-15T01:13:49.469Z,1.00
2022-10-15T01:16:45.762Z,5.83
2022-10-15T01:19:28.929Z,2.80
2022-10-15T01:22:26.594Z,2.17
2022-10-15T01:25:22.757Z,1.63
2022-10-15T01:27:56.371Z,0.80
2022-10-15T01:30:24.055Z,1.20
2022-10-15T01:33:00.756Z,1.70
2022-10-15T01:35:51.477Z,2.37
2022-10-15T01:38:30.842Z,2.07
2022-10-15T01:41:10.871Z,1.43
2022-10-15T01:43:44.139Z,2.70
2022-10-15T01:46:19.533Z,2.60
2022-10-15T01:48:46.338Z,2.50
2022-10-15T01:51:15.439Z,1.23
2022-10-15T01:53:43.949Z,0.90
2022-10-15T01:56:16.224Z,1.03
2022-10-15T01:58:45.087Z,2.80
2022-10-15T02:01:11.850Z,1.00
2022-10-15T02:03:52.835Z,1.40
2022-10-15T02:06:41.786Z,2.00
2022-10-15T02:09:44.148Z,1.10
2022-10-15T02:12:28.822Z,2.10
2022-10-15T02:15:26.667Z,2.37
2022-10-15T02:18:13.345Z,1.27
2022-10-15T02:20:54.278Z,3.60
2022-10-15T02:23:26.638Z,2.10
2022-10-15T02:25:55.708Z,4.70
2022-10-15T02:28:25.521Z,2.50
2022-10-15T02:30:54.266Z,1.10
2022-10-15T02:33:23.100Z,1.57
2022-10-15T02:35:51.473Z,2.03
2022-10-15T02:38:22.373Z,3.63
2022-10-15T02:40:49.636Z,2.97
2022-10-15T02:43:20.262Z,1.20
2022-10-15T02:45:47.934Z,2.10
2022-10-15T02:48:14.640Z,1.03
2022-10-15T02:50:41.607Z,1.97
2022-10-15T02:53:08.292Z,1.00
2022-10-15T02:55:35.084Z,1.30
2022-10-15T02:58:01.860Z,1.10
2022-10-15T03:00:28.626Z,1.20
2022-10-15T03:02:56.149Z,1.57
2022-10-15T03:05:23.273Z,1.37
2022-10-15T03:07:50.015Z,2.23
2022-10-15T03:10:16.742Z,0.90
2022-10-15T03:12:43.377Z,2.07
2022-10-15T03:15:10.270Z,2.03
2022-10-15T03:17:36.923Z,3.33
2022-10-15T03:20:04.517Z,1.97
2022-10-15T03:22:31.190Z,2.53
2022-10-15T03:24:57.948Z,1.00
2022-10-15T03:27:25.433Z,1.47
2022-10-15T03:29:52.447Z,3.10
2022-10-15T03:32:19.209Z,1.07
2022-10-15T03:34:45.868Z,2.70
2022-10-15T03:37:12.588Z,2.03
2022-10-15T03:39:39.241Z,1.23
2022-10-15T03:42:06.003Z,1.93
2022-10-15T03:44:34.181Z,1.00
2022-10-15T03:47:00.850Z,2.30
2022-10-15T03:49:27.632Z,0.80
2022-10-15T03:51:54.337Z,0.77
2022-10-15T03:54:21.093Z,1.07
2022-10-15T03:56:47.875Z,0.90
2022-10-15T03:59:14.602Z,0.90
2022-10-15T04:01:41.332Z,1.20
2022-10-15T04:04:08.257Z,0.90
2022-10-15T04:06:34.950Z,0.80
2022-10-15T04:09:01.754Z,3.23
2022-10-15T04:11:28.476Z,2.40
2022-10-15T04:13:55.153Z,5.33
2022-10-15T04:16:21.903Z,3.70
2022-10-15T04:18:49.148Z,3.67
2022-10-15T04:21:15.792Z,0.70
2022-10-15T04:23:42.558Z,2.50
2022-10-15T04:26:09.496Z,2.90
2022-10-15T04:28:36.264Z,1.23
2022-10-15T04:31:03.129Z,1.47
2022-10-15T04:33:29.884Z,1.00
2022-10-15T04:36:01.514Z,17.90
2022-10-15T04:38:28.498Z,2.90
2022-10-15T04:41:00.785Z,1.00
2022-10-15T04:43:28.476Z,0.90
2022-10-15T04:45:59.857Z,1.80
2022-10-15T04:48:29.013Z,1.10
2022-10-15T04:50:56.508Z,1.33
2022-10-15T04:53:23.380Z,1.60
2022-10-15T04:55:50.056Z,1.50
2022-10-15T04:58:16.757Z,0.80
2022-10-15T05:00:43.429Z,0.80
2022-10-15T05:03:10.260Z,2.80
2022-10-15T05:05:36.946Z,1.37
2022-10-15T05:08:04.542Z,1.10
2022-10-15T05:10:32.081Z,2.30
2022-10-15T05:12:58.739Z,2.93
2022-10-15T05:15:27.188Z,1.93
2022-10-15T05:17:54.063Z,3.80
2022-10-15T05:20:20.962Z,1.47
2022-10-15T05:22:47.620Z,1.10
2022-10-15T05:25:14.644Z,1.10
2022-10-15T05:27:41.456Z,5.27
2022-10-15T05:30:08.605Z,1.50
2022-10-15T05:32:35.377Z,1.30
2022-10-15T05:35:02.216Z,1.23
2022-10-15T05:37:28.907Z,1.00
2022-10-15T05:39:55.696Z,2.80
2022-10-15T05:42:22.928Z,0.90
2022-10-15T05:44:49.696Z,1.27
2022-10-15T05:47:16.357Z,1.00
2022-10-15T05:49:43.117Z,2.73
2022-10-15T05:52:09.778Z,2.00
2022-10-15T05:54:36.460Z,0.80
2022-10-15T05:57:03.258Z,1.07
2022-10-15T05:59:29.944Z,1.00
2022-10-15T06:01:56.661Z,0.80
2022-10-15T06:04:23.415Z,1.00
2022-10-15T06:06:50.189Z,2.20
2022-10-15T06:09:17.032Z,0.90
2022-10-15T06:11:43.983Z,1.20
2022-10-15T06:14:10.989Z,0.90
2022-10-15T06:16:37.841Z,3.57
2022-10-15T06:19:04.640Z,3.13
2022-10-15T06:21:31.294Z,4.77
2022-10-15T06:23:57.984Z,6.03
2022-10-15T06:26:24.726Z,8.90
2022-10-15T06:28:51.400Z,20.30
2022-10-15T06:31:18.144Z,17.90
2022-10-15T06:33:44.915Z,14.07
2022-10-15T06:36:13.748Z,10.60
2022-10-15T06:38:40.586Z,16.97
2022-10-15T06:41:07.881Z,8.13
2022-10-15T06:43:35.684Z,34.13
2022-10-15T06:46:04.168Z,20.67
2022-10-15T06:48:30.999Z,10.83
2022-10-15T06:50:59.414Z,16.70
2022-10-15T06:53:26.369Z,20.60
2022-10-15T06:56:00.256Z,24.53
2022-10-15T06:58:27.130Z,11.77
2022-10-15T07:00:53.919Z,6.63
2022-10-15T07:03:20.639Z,4.97
2022-10-15T07:05:47.310Z,11.80
2022-10-15T07:08:16.937Z,9.40
2022-10-15T07:10:47.133Z,4.97
2022-10-15T07:13:14.605Z,2.80
2022-10-15T07:15:41.349Z,7.13
2022-10-15T07:18:08.003Z,24.10
2022-10-15T07:20:34.685Z,14.83
2022-10-15T07:23:02.380Z,11.40
2022-10-15T07:25:29.315Z,19.77
2022-10-15T07:27:57.186Z,28.70
2022-10-15T07:30:28.619Z,19.53
2022-10-15T07:32:59.510Z,13.13
2022-10-15T07:35:27.451Z,4.50
2022-10-15T07:37:54.429Z,2.10
2022-10-15T07:40:21.439Z,1.57
2022-10-15T07:42:55.559Z,3.23
2022-10-15T07:45:22.584Z,2.17
2022-10-15T07:47:49.413Z,1.53
2022-10-15T07:50:16.530Z,1.10
2022-10-15T07:52:43.231Z,1.57
2022-10-15T07:55:10.671Z,0.93
2022-10-15T07:57:37.504Z,1.20
2022-10-15T08:00:05.626Z,2.87
2022-10-15T08:02:32.510Z,15.23
2022-10-15T08:04:59.248Z,10.13
2022-10-15T08:07:25.934Z,4.30
2022-10-15T08:09:52.592Z,2.73
2022-10-15T08:12:19.331Z,3.93
2022-10-15T08:14:47.236Z,1.30
2022-10-15T08:17:13.994Z,1.67
2022-10-15T08:19:40.664Z,1.43
2022-10-15T08:22:07.520Z,2.30
2022-10-15T08:24:34.384Z,3.13
2022-10-15T08:27:01.096Z,1.20
2022-10-15T08:29:27.843Z,1.73
2022-10-15T08:31:54.534Z,1.77
2022-10-15T08:34:21.244Z,3.23
2022-10-15T08:36:48.130Z,3.57
2022-10-15T08:39:14.962Z,1.40
2022-10-15T08:41:46.811Z,4.60
2022-10-15T08:44:26.107Z,5.83
2022-10-15T08:47:03.044Z,1.73
2022-10-15T08:49:43.855Z,3.43
2022-10-15T08:52:25.366Z,2.50
2022-10-15T08:54:55.303Z,1.60
2022-10-15T08:57:53.879Z,4.63
2022-10-15T09:00:24.108Z,1.50
2022-10-15T09:02:59.463Z,1.87
2022-10-15T09:05:49.895Z,2.30
2022-10-15T09:08:37.794Z,2.90
2022-10-15T09:11:13.594Z,6.40
2022-10-15T09:13:43.321Z,2.20
2022-10-15T09:16:25.402Z,1.20
2022-10-15T09:18:53.533Z,1.40
2022-10-15T09:21:24.113Z,3.17
2022-10-15T09:23:52.368Z,3.80
2022-10-15T09:26:19.063Z,1.43
2022-10-15T09:29:23.909Z,1.40
2022-10-15T09:32:16.708Z,1.17
2022-10-15T09:35:09.998Z,2.17
2022-10-15T09:38:02.291Z,4.93
2022-10-15T09:40:52.581Z,2.50
2022-10-15T09:43:30.769Z,1.47
2022-10-15T09:45:58.164Z,1.00
2022-10-15T09:48:27.476Z,2.57
2022-10-15T09:51:04.723Z,5.20
2022-10-15T09:54:02.243Z,0.80
2022-10-15T09:56:56.654Z,0.97
2022-10-15T09:59:25.561Z,1.13
2022-10-15T10:02:15.011Z,0.97
2022-10-15T10:04:41.772Z,1.13
2022-10-15T10:07:25.848Z,0.90
2022-10-15T10:09:56.476Z,0.77
2022-10-15T10:12:27.922Z,4.10
2022-10-15T10:15:26.765Z,1.30
2022-10-15T10:17:54.780Z,2.63
2022-10-15T10:20:23.735Z,0.70
2022-10-15T10:22:52.711Z,1.13
2022-10-15T10:25:31.474Z,1.37
2022-10-15T10:28:19.016Z,1.50
2022-10-15T10:30:58.383Z,0.90
2022-10-15T10:33:32.029Z,0.90
2022-10-15T10:36:00.485Z,1.40
2022-10-15T10:38:33.939Z,0.80
2022-10-15T10:41:08.505Z,1.10
2022-10-15T10:43:55.261Z,0.70
2022-10-15T10:46:24.435Z,2.10
2022-10-15T10:48:53.449Z,0.80
2022-10-15T10:51:28.131Z,0.73
2022-10-15T10:54:05.358Z,1.07
2022-10-15T10:56:38.599Z,1.10
2022-10-15T10:59:30.826Z,3.00
2022-10-15T11:01:57.793Z,1.53
2022-10-15T11:04:32.331Z,0.70
2022-10-15T11:07:07.367Z,1.70
2022-10-15T11:09:42.942Z,5.00
2022-10-15T11:12:42.390Z,0.97
2022-10-15T11:15:15.210Z,2.53
2022-10-15T11:17:50.723Z,1.27
2022-10-15T11:20:39.033Z,1.53
2022-10-15T11:23:39.818Z,1.03
2022-10-15T11:26:59.395Z,2.40
2022-10-15T11:29:53.347Z,0.90
2022-10-15T11:32:28.149Z,1.07
2022-10-15T11:35:48.308Z,0.83
2022-10-15T11:38:37.013Z,3.93
2022-10-15T11:41:23.243Z,0.70
2022-10-15T11:44:05.083Z,0.80
2022-10-15T11:46:45.673Z,0.90
2022-10-15T11:52:27.642Z,2.63
2022-10-15T11:55:17.659Z,1.00
2022-10-15T11:57:47.365Z,4.60
2022-10-15T12:00:34.028Z,0.90
2022-10-15T12:03:12.173Z,0.70
2022-10-15T12:05:44.971Z,0.73
2022-10-15T12:08:12.487Z,4.20
2022-10-15T12:10:48.253Z,0.70
2022-10-15T12:13:39.638Z,2.00
2022-10-15T12:16:33.982Z,0.80
2022-10-15T12:19:18.873Z,5.63
2022-10-15T12:21:54.860Z,0.70
2022-10-15T12:24:48.708Z,1.50
2022-10-15T12:27:36.509Z,2.40
2022-10-15T12:30:03.157Z,3.07
2022-10-15T12:32:36.956Z,0.70
2022-10-15T12:35:18.016Z,3.27
2022-10-15T12:37:48.042Z,2.37
2022-10-15T12:40:23.935Z,2.50
2022-10-15T12:42:56.713Z,0.80
2022-10-15T12:45:28.923Z,1.90
2022-10-15T12:48:15.767Z,2.40
2022-10-15T12:50:42.936Z,1.37
2022-10-15T12:53:28.641Z,0.90
2022-10-15T12:56:10.922Z,0.70
2022-10-15T12:58:39.626Z,1.73
2022-10-15T13:01:26.624Z,0.73
2022-10-15T13:03:56.137Z,3.00
2022-10-15T13:06:22.936Z,1.97
2022-10-15T13:09:00.105Z,6.43
2022-10-15T13:11:32.720Z,1.57
2022-10-15T13:14:21.601Z,1.83
2022-10-15T13:16:50.441Z,1.93
2022-10-15T13:19:30.209Z,1.63
2022-10-15T13:22:00.566Z,1.20
2022-10-15T13:24:30.475Z,1.13
2022-10-15T13:27:00.373Z,3.83
2022-10-15T13:29:28.123Z,3.63
2022-10-15T13:31:57.447Z,3.60
2022-10-15T13:34:30.267Z,3.43
2022-10-15T13:37:00.233Z,1.53
2022-10-15T13:39:38.692Z,2.93
2022-10-15T13:42:12.996Z,4.20
2022-10-15T13:44:40.156Z,0.70
2022-10-15T13:47:36.786Z,0.87
2022-10-15T13:50:34.761Z,3.47
2022-10-15T13:53:21.184Z,3.10
2022-10-15T13:55:51.308Z,5.90
2022-10-15T13:58:38.535Z,1.97
2022-10-15T14:01:21.177Z,0.87
2022-10-15T14:04:01.731Z,0.80
2022-10-15T14:06:33.015Z,2.97
2022-10-15T14:09:02.363Z,1.20
2022-10-15T14:11:37.659Z,0.70
2022-10-15T14:14:04.317Z,1.00
2022-10-15T14:16:32.820Z,1.13
2022-10-15T14:19:11.076Z,0.90
2022-10-15T14:21:44.576Z,1.93
2022-10-15T14:24:19.368Z,1.00
2022-10-15T14:26:47.462Z,3.80
2022-10-15T14:29:19.431Z,0.80
2022-10-15T14:31:48.688Z,1.30
2022-10-15T14:34:27.095Z,1.47
2022-10-15T14:36:53.764Z,2.20
2022-10-15T14:39:31.585Z,1.90
2022-10-15T14:42:00.723Z,2.50
2022-10-15T14:44:50.644Z,0.90
2022-10-15T14:47:26.390Z,1.10
2022-10-15T14:49:56.803Z,3.10
2022-10-15T14:52:24.055Z,1.77
2022-10-15T14:54:53.850Z,1.50
2022-10-15T14:57:25.071Z,1.17
2022-10-15T14:59:56.516Z,1.30
2022-10-15T15:02:26.182Z,0.90
2022-10-15T15:05:10.623Z,2.80
2022-10-15T15:07:38.252Z,1.00
2022-10-15T15:10:07.648Z,6.43
2022-10-15T15:12:34.997Z,2.10
2022-10-15T15:15:02.186Z,0.90
2022-10-15T15:17:30.171Z,2.10
2022-10-15T15:19:57.911Z,1.00
2022-10-15T15:22:31.218Z,2.10
2022-10-15T15:25:00.115Z,1.47
2022-10-15T15:27:29.617Z,1.37
2022-10-15T15:29:57.587Z,1.10
2022-10-15T15:32:25.189Z,1.97
2022-10-15T15:34:53.917Z,2.60
2022-10-15T15:37:24.561Z,2.60
2022-10-15T15:39:52.062Z,3.20
2022-10-15T15:42:22.450Z,3.00
2022-10-15T15:44:49.783Z,3.63
2022-10-15T15:47:17.149Z,0.70
2022-10-15T15:49:43.870Z,3.80
2022-10-15T15:52:18.798Z,3.10
2022-10-15T15:54:46.393Z,2.00
2022-10-15T15:57:13.630Z,0.93
2022-10-15T15:59:40.337Z,5.00
2022-10-15T16:02:07.497Z,3.47
2022-10-15T16:04:34.328Z,1.47
2022-10-15T16:07:01.000Z,1.33
2022-10-15T16:09:28.049Z,2.10
2022-10-15T16:11:56.770Z,1.67
2022-10-15T16:14:23.480Z,1.90
2022-10-15T16:16:50.195Z,3.33
2022-10-15T16:19:16.969Z,1.07
2022-10-15T16:21:43.631Z,1.50
2022-10-15T16:24:10.349Z,2.20
2022-10-15T16:26:37.016Z,4.53
2022-10-15T16:29:03.964Z,0.80
2022-10-15T16:31:32.411Z,1.40
2022-10-15T16:33:59.439Z,2.17
2022-10-15T16:36:26.157Z,5.80
2022-10-15T16:38:53.698Z,1.00
2022-10-15T16:41:20.475Z,2.40
2022-10-15T16:43:47.786Z,1.80
2022-10-15T16:46:15.907Z,2.37
2022-10-15T16:48:42.789Z,2.00
2022-10-15T16:51:14.967Z,1.50
2022-10-15T16:53:43.486Z,0.80
2022-10-15T16:56:22.703Z,4.00
2022-10-15T16:58:49.560Z,6.63
2022-10-15T17:01:19.375Z,1.43
2022-10-15T17:03:47.124Z,2.70
2022-10-15T17:06:16.762Z,1.73
2022-10-15T17:08:44.883Z,2.20
2022-10-15T17:11:20.038Z,0.90
2022-10-15T17:13:48.547Z,3.03
2022-10-15T17:16:18.435Z,1.10
2022-10-15T17:18:46.359Z,6.53
2022-10-15T17:21:16.108Z,8.13
2022-10-15T17:23:43.603Z,1.67
2022-10-15T17:26:13.464Z,1.60
2022-10-15T17:28:40.597Z,3.07
2022-10-15T17:31:09.746Z,3.53
2022-10-15T17:33:38.154Z,1.10
2022-10-15T17:36:20.320Z,1.83
2022-10-15T17:38:47.093Z,1.50
2022-10-15T17:41:21.973Z,0.80
2022-10-15T17:43:49.919Z,1.00
2022-10-15T17:46:18.978Z,6.50
2022-10-15T17:48:46.332Z,1.53
2022-10-15T17:51:15.725Z,3.47
2022-10-15T17:53:43.041Z,0.80
2022-10-15T17:56:12.040Z,0.80
2022-10-15T17:58:39.290Z,1.10
2022-10-15T18:01:06.619Z,2.43
2022-10-15T18:03:33.428Z,2.33
2022-10-15T18:06:09.710Z,1.30
2022-10-15T18:08:36.820Z,5.47
2022-10-15T18:11:03.728Z,3.37
2022-10-15T18:13:30.552Z,2.97
2022-10-15T18:15:57.337Z,1.37
2022-10-15T18:18:24.963Z,2.30
2022-10-15T18:20:51.750Z,1.67
2022-10-15T18:23:19.022Z,3.87
2022-10-15T18:25:46.263Z,2.53
2022-10-15T18:28:13.761Z,1.00
2022-10-15T18:30:42.551Z,2.77
2022-10-15T18:33:12.239Z,4.20
2022-10-15T18:35:39.737Z,1.03
2022-10-15T18:38:06.973Z,1.20
2022-10-15T18:40:40.065Z,1.87
2022-10-15T18:43:07.800Z,3.07
2022-10-15T18:45:36.576Z,4.43
2022-10-15T18:48:04.004Z,2.40
2022-10-15T18:50:31.349Z,0.90
2022-10-15T18:52:58.068Z,3.43
2022-10-15T18:55:24.770Z,2.07
2022-10-15T18:57:51.677Z,1.17
2022-10-15T19:00:18.458Z,1.67
2022-10-15T19:02:45.160Z,1.20
2022-10-15T19:05:11.909Z,1.60
2022-10-15T19:07:38.605Z,3.33
2022-10-15T19:10:05.662Z,1.20
2022-10-15T19:12:32.370Z,1.20
2022-10-15T19:14:59.149Z,0.70
2022-10-15T19:17:25.804Z,3.90
2022-10-15T19:19:52.504Z,2.70
2022-10-15T19:22:19.194Z,0.87
2022-10-15T19:24:45.889Z,1.90
2022-10-15T19:27:12.674Z,1.53
2022-10-15T19:29:40.242Z,3.03
2022-10-15T19:32:06.991Z,0.90
2022-10-15T19:34:35.340Z,4.30
2022-10-15T19:37:02.188Z,1.00
2022-10-15T19:39:29.342Z,1.53
2022-10-15T19:41:55.985Z,5.63
2022-10-15T19:44:26.056Z,4.77
2022-10-15T19:46:53.750Z,3.07
2022-10-15T19:49:20.718Z,3.33
2022-10-15T19:51:48.286Z,0.70
2022-10-15T19:54:16.007Z,3.40
2022-10-15T19:56:42.722Z,0.93
2022-10-15T19:59:11.066Z,0.77
2022-10-15T20:01:37.886Z,0.90
2022-10-15T20:04:07.150Z,1.67
2022-10-15T20:06:36.630Z,1.00
2022-10-15T20:09:04.443Z,0.80
2022-10-15T20:11:31.407Z,1.13
2022-10-15T20:14:01.144Z,2.33
2022-10-15T20:16:32.448Z,2.10
2022-10-15T20:19:05.260Z,2.50
2022-10-15T20:21:32.635Z,2.77
2022-10-15T20:23:59.433Z,0.90
2022-10-15T20:26:26.130Z,0.80
2022-10-15T20:28:53.461Z,1.77
2022-10-15T20:31:21.504Z,1.20
2022-10-15T20:33:48.281Z,4.23
2022-10-15T20:36:22.525Z,5.03
2022-10-15T20:38:50.425Z,1.87
2022-10-15T20:41:17.890Z,0.90
2022-10-15T20:43:45.744Z,5.13
2022-10-15T20:46:18.223Z,2.03
2022-10-15T20:48:46.059Z,3.73
2022-10-15T20:51:15.965Z,1.10
2022-10-15T20:53:43.530Z,3.43
2022-10-15T20:56:10.355Z,1.43
2022-10-15T20:58:37.041Z,6.60
2022-10-15T21:01:04.304Z,2.00
2022-10-15T21:03:31.181Z,1.23
2022-10-15T21:05:57.922Z,1.40
2022-10-15T21:08:25.114Z,1.83
2022-10-15T21:10:51.851Z,1.10
2022-10-15T21:13:18.505Z,3.73
2022-10-15T21:15:45.290Z,7.70
2022-10-15T21:18:12.247Z,5.03
2022-10-15T21:20:38.893Z,2.10
2022-10-15T21:23:05.593Z,3.40
2022-10-15T21:25:34.124Z,8.40
2022-10-15T21:28:00.842Z,3.43
2022-10-15T21:30:27.592Z,6.30
2022-10-15T21:32:54.252Z,4.13
2022-10-15T21:35:20.921Z,1.17
2022-10-15T21:37:47.581Z,2.20
2022-10-15T21:40:14.283Z,3.20
2022-10-15T21:42:41.007Z,1.23
2022-10-15T21:45:08.349Z,1.40
2022-10-15T21:47:35.032Z,1.10
2022-10-15T21:50:01.704Z,2.13
2022-10-15T21:52:28.521Z,1.50
2022-10-15T21:54:55.348Z,1.73
2022-10-15T21:57:22.014Z,3.10
2022-10-15T21:59:48.751Z,1.67
2022-10-15T22:02:15.503Z,1.70
2022-10-15T22:04:42.251Z,4.33
2022-10-15T22:07:09.800Z,0.80
2022-10-15T22:09:36.945Z,1.10
2022-10-15T22:12:03.763Z,1.00
2022-10-15T22:14:30.527Z,4.80
2022-10-15T22:16:57.265Z,1.77
2022-10-15T22:19:23.992Z,1.57
2022-10-15T22:21:50.725Z,1.00
2022-10-15T22:24:19.814Z,4.50
2022-10-15T22:26:49.714Z,2.40
2022-10-15T22:29:20.236Z,4.50
2022-10-15T22:31:47.681Z,1.23
2022-10-15T22:34:14.395Z,8.13
2022-10-15T22:36:41.110Z,1.20
2022-10-15T22:39:09.571Z,5.13
2022-10-15T22:41:39.712Z,1.60
2022-10-15T22:44:12.924Z,2.93
2022-10-15T22:46:40.169Z,2.90
2022-10-15T22:49:08.797Z,1.37
2022-10-15T22:51:35.794Z,2.50
2022-10-15T22:54:02.593Z,4.40
2022-10-15T22:56:29.786Z,5.90
2022-10-15T22:58:58.022Z,1.10
2022-10-15T23:01:29.929Z,0.90
2022-10-15T23:03:59.368Z,1.57
2022-10-15T23:06:26.487Z,1.83
2022-10-15T23:08:55.592Z,8.17
2022-10-15T23:11:28.703Z,1.50
2022-10-15T23:13:58.112Z,4.50
2022-10-15T23:16:36.401Z,3.47
2022-10-15T23:19:05.984Z,1.10
2022-10-15T23:21:42.987Z,1.00
2022-10-15T23:24:09.918Z,1.50
2022-10-15T23:26:38.171Z,1.93
2022-10-15T23:29:08.963Z,3.10
2022-10-15T23:31:36.321Z,4.37
2022-10-15T23:34:05.383Z,1.23
2022-10-15T23:36:33.745Z,1.33
2022-10-15T23:39:02.701Z,1.50
2022-10-15T23:41:29.780Z,1.20
2022-10-15T23:43:56.880Z,2.30
2022-10-15T23:46:24.219Z,6.70
2022-10-15T23:48:51.042Z,1.40
2022-10-15T23:51:19.578Z,1.10
2022-10-15T23:53:46.554Z,4.50
2022-10-15T23:56:13.540Z,1.30
2022-10-15T23:58:40.559Z,1.63
